Time;durP1;ratioP1;P1;durP2;ratioP2;P2;SDS_P1;SDS_P2;PMS_P1;PMS_P2;Temp;Humidity;BMP_temperature;BMP_pressure;BME280_temperature;BME280_humidity;BME280_pressure;Samples;Min_cycle;Max_cycle;Signal;HPM_P1;HPM_P2
2023/10/25 00:00:05;;;;;;;61.03;30.08;;;;;;;-146.25;100.00;52516.22;2105058;28;32284;-68
2023/10/25 00:01:07;;;;;;;58.65;30.55;;;;;;;-146.25;100.00;52542.56;2104491;28;44565;-68
2023/10/25 00:02:09;;;;;;;59.13;31.75;;;;;;;-146.25;100.00;52579.06;2105284;28;27736;-68
2023/10/25 00:03:12;;;;;;;55.47;30.45;;;;;;;-146.25;100.00;52558.78;2104433;28;35542;-68
2023/10/25 00:04:16;;;;;;;61.95;29.90;;;;;;;-146.25;100.00;52538.53;2105327;28;35243;-69
2023/10/25 00:05:18;;;;;;;48.92;27.98;;;;;;;-146.25;100.00;52522.28;2105527;28;20057;-68
2023/10/25 00:06:20;;;;;;;49.65;28.40;;;;;;;-146.25;100.00;52502.03;2104942;28;37564;-68
2023/10/25 00:07:22;;;;;;;49.72;29.58;;;;;;;-146.25;100.00;52562.84;2105466;28;31407;-68
2023/10/25 00:08:24;;;;;;;48.33;28.80;;;;;;;-146.25;100.00;52568.94;2105393;28;20075;-68
2023/10/25 00:09:26;;;;;;;56.17;29.75;;;;;;;-146.25;100.00;52518.25;2104260;28;40443;-68
2023/10/25 00:10:28;;;;;;;52.17;30.20;;;;;;;-146.25;100.00;52579.06;2105995;28;20175;-68
2023/10/25 00:11:31;;;;;;;55.15;30.95;;;;;;;-146.25;100.00;52562.84;2104856;28;37268;-68
2023/10/25 00:12:36;;;;;;;57.47;30.45;;;;;;;-146.25;100.00;52542.56;2105317;28;35521;-68
2023/10/25 00:13:38;;;;;;;58.13;30.23;;;;;;;-146.25;100.00;52558.78;2104969;28;34361;-68
2023/10/25 00:14:43;;;;;;;53.67;31.15;;;;;;;-146.25;100.00;52573.00;2104851;28;38594;-68
2023/10/25 00:15:44;;;;;;;58.03;31.08;;;;;;;-146.25;100.00;52538.53;2104728;28;31819;-68
2023/10/25 00:16:49;;;;;;;59.33;31.17;;;;;;;-146.25;100.00;52542.56;2104974;28;34367;-68
2023/10/25 00:17:51;;;;;;;59.97;32.08;;;;;;;-146.25;100.00;52518.25;2104822;28;35486;-68
2023/10/25 00:18:53;;;;;;;60.03;32.10;;;;;;;-146.25;100.00;52518.25;2105242;28;35191;-68
2023/10/25 00:19:55;;;;;;;54.63;30.42;;;;;;;-146.25;100.00;52526.34;2104571;28;39574;-69
2023/10/25 00:20:57;;;;;;;52.78;30.90;;;;;;;-146.25;100.00;52560.81;2106000;28;20075;-67
2023/10/25 00:21:59;;;;;;;58.65;31.98;;;;;;;-146.25;100.00;52546.63;2104831;28;34675;-69
2023/10/25 00:23:01;;;;;;;58.97;31.63;;;;;;;-146.25;100.00;52566.91;2104562;28;33719;-68
2023/10/25 00:24:03;;;;;;;60.20;32.15;;;;;;;-146.25;100.00;52538.53;2105012;28;34029;-68
2023/10/25 00:25:05;;;;;;;61.15;31.77;;;;;;;-146.25;100.00;52516.22;2104752;28;37614;-68
2023/10/25 00:26:07;;;;;;;58.60;32.97;;;;;;;-146.25;100.00;52506.06;2105104;28;33799;-68
2023/10/25 00:27:09;;;;;;;63.25;32.70;;;;;;;-146.25;100.00;52542.56;2105539;28;20033;-69
2023/10/25 00:28:11;;;;;;;61.65;32.40;;;;;;;-146.25;100.00;52544.59;2105415;28;20891;-69
2023/10/25 00:29:13;;;;;;;64.50;33.17;;;;;;;-146.25;100.00;52562.84;2104704;28;28320;-69
2023/10/25 00:30:15;;;;;;;65.97;33.78;;;;;;;-146.25;100.00;52579.06;2105642;28;20171;-68
2023/10/25 00:31:17;;;;;;;66.35;33.47;;;;;;;-146.25;100.00;52536.50;2105079;28;20112;-68
2023/10/25 00:32:18;;;;;;;60.67;32.08;;;;;;;-146.25;100.00;52530.41;2104366;28;28306;-68
2023/10/25 00:33:20;;;;;;;60.88;30.63;;;;;;;-146.25;100.00;52562.84;2104938;28;34607;-68
2023/10/25 00:34:22;;;;;;;60.97;33.35;;;;;;;-146.25;100.00;52532.44;2104620;28;27470;-68
2023/10/25 00:35:26;;;;;;;65.95;32.67;;;;;;;-146.25;100.00;52542.56;2104193;28;36332;-68
2023/10/25 00:36:28;;;;;;;56.20;31.73;;;;;;;-146.25;100.00;52554.75;2105102;28;20040;-69
2023/10/25 00:37:30;;;;;;;64.97;32.55;;;;;;;-146.25;100.00;52528.38;2112975;28;23267;-68
2023/10/25 00:38:33;;;;;;;57.22;31.02;;;;;;;-146.25;100.00;52579.06;2104566;28;28814;-68
2023/10/25 00:39:35;;;;;;;58.47;30.08;;;;;;;-146.25;100.00;52526.34;2096267;28;20087;-68
2023/10/25 00:40:38;;;;;;;60.30;31.60;;;;;;;-146.25;100.00;52512.16;2096332;28;34505;-68
2023/10/25 00:41:41;;;;;;;62.15;31.83;;;;;;;-146.25;100.00;52546.63;2105254;28;20052;-69
2023/10/25 00:42:42;;;;;;;55.65;30.40;;;;;;;-146.25;100.00;52526.34;2105296;28;25796;-68
2023/10/25 00:43:44;;;;;;;59.97;31.25;;;;;;;-146.25;100.00;52532.44;2112593;28;33412;-69
2023/10/25 00:44:46;;;;;;;66.72;32.58;;;;;;;-146.25;100.00;52554.75;2112234;28;28187;-68
2023/10/25 00:46:12;;;;;;;56.47;30.63;;;;;;;-146.25;100.00;52556.75;2105312;28;30566;-68
2023/10/25 00:47:15;;;;;;;53.40;29.10;;;;;;;-146.25;100.00;52558.78;2104486;28;23933;-68
2023/10/25 00:48:16;;;;;;;57.33;30.67;;;;;;;-146.25;100.00;52558.78;2104115;28;28531;-68
2023/10/25 00:49:18;;;;;;;56.75;29.63;;;;;;;-146.25;100.00;52575.00;2105294;28;20926;-68
2023/10/25 00:50:20;;;;;;;60.08;30.88;;;;;;;-146.25;100.00;52562.84;2112575;28;21278;-68
2023/10/25 00:51:23;;;;;;;68.78;32.80;;;;;;;-146.25;100.00;52575.00;2112948;28;30884;-67
2023/10/25 00:52:25;;;;;;;61.40;32.88;;;;;;;-146.25;100.00;52526.34;2105227;28;27270;-68
2023/10/25 00:53:31;;;;;;;62.40;33.08;;;;;;;-146.25;100.00;52514.19;2105086;28;27272;-68
2023/10/25 00:54:32;;;;;;;59.53;31.90;;;;;;;-146.25;100.00;52534.47;2105138;28;32579;-68
2023/10/25 00:55:34;;;;;;;56.08;30.42;;;;;;;-146.25;100.00;52542.56;2104965;28;27513;-68
2023/10/25 00:56:37;;;;;;;60.30;30.48;;;;;;;-146.25;100.00;52579.06;2104840;28;28200;-68
2023/10/25 00:57:39;;;;;;;57.45;29.65;;;;;;;-146.25;100.00;52564.88;2104134;28;32743;-68
2023/10/25 00:58:48;;;;;;;58.20;29.98;;;;;;;-146.25;100.00;52562.84;2104596;28;20179;-68
2023/10/25 00:59:51;;;;;;;64.45;31.75;;;;;;;-146.25;100.00;52560.81;2103904;28;31490;-69
2023/10/25 01:00:55;;;;;;;63.58;32.55;;;;;;;-146.25;100.00;52564.88;2104654;28;25020;-68
2023/10/25 01:02:02;;;;;;;67.72;34.00;;;;;;;-146.25;100.00;52550.69;2105034;28;20056;-68
2023/10/25 01:03:07;;;;;;;66.13;32.38;;;;;;;-146.25;100.00;52550.69;2104767;28;20810;-68
2023/10/25 01:04:11;;;;;;;63.30;30.63;;;;;;;-146.25;100.00;52548.66;2097678;28;20040;-69
2023/10/25 01:05:17;;;;;;;58.83;31.17;;;;;;;-146.25;100.00;52548.66;2104630;28;20102;-69
2023/10/25 01:06:20;;;;;;;66.22;31.45;;;;;;;-146.25;100.00;52570.97;2112717;28;26684;-69
2023/10/25 01:07:21;;;;;;;61.38;29.98;;;;;;;-146.25;100.00;52520.28;2112599;28;20146;-68
2023/10/25 01:08:23;;;;;;;58.85;31.45;;;;;;;-146.25;100.00;52589.22;2103946;28;29412;-68
2023/10/25 01:09:29;;;;;;;68.85;31.15;;;;;;;-146.25;100.00;52530.41;2088155;28;21102;-68
2023/10/25 01:10:31;;;;;;;61.17;31.00;;;;;;;-146.25;100.00;52554.75;2096487;28;26562;-68
2023/10/25 01:11:32;;;;;;;61.97;30.58;;;;;;;-146.25;100.00;52518.25;2104998;28;27861;-67
2023/10/25 01:12:34;;;;;;;65.97;31.45;;;;;;;-146.25;100.00;52564.88;2104617;28;26034;-69
2023/10/25 01:13:38;;;;;;;66.30;32.47;;;;;;;-146.25;100.00;52577.03;2104319;28;20098;-67
2023/10/25 01:14:40;;;;;;;53.28;29.23;;;;;;;-146.25;100.00;52534.47;2105575;28;20126;-68
2023/10/25 01:15:48;;;;;;;58.00;31.10;;;;;;;-146.25;100.00;52508.09;2104976;28;20024;-68
2023/10/25 01:16:50;;;;;;;59.25;31.13;;;;;;;-146.25;100.00;52542.56;2104864;28;26727;-68
2023/10/25 01:17:51;;;;;;;65.90;31.80;;;;;;;-146.25;100.00;52570.97;2104360;28;30422;-68
2023/10/25 01:18:54;;;;;;;58.15;30.30;;;;;;;-146.25;100.00;52597.31;2105103;28;28279;-69
2023/10/25 01:19:56;;;;;;;59.63;31.38;;;;;;;-146.25;100.00;52548.66;2104387;28;27790;-68
2023/10/25 01:20:57;;;;;;;66.15;31.48;;;;;;;-146.25;100.00;52534.47;2105107;28;30450;-68
2023/10/25 01:22:03;;;;;;;55.55;29.33;;;;;;;-146.25;100.00;52554.75;2104996;28;20155;-68
2023/10/25 01:23:05;;;;;;;62.30;30.40;;;;;;;-146.25;100.00;52558.78;2104152;28;20958;-67
2023/10/25 01:24:09;;;;;;;60.28;30.55;;;;;;;-146.25;100.00;52554.75;2103867;28;26469;-68
2023/10/25 01:25:11;;;;;;;56.13;29.30;;;;;;;-146.25;100.00;52564.88;2103880;28;27986;-68
2023/10/25 01:26:13;;;;;;;54.40;29.42;;;;;;;-146.25;100.00;52558.78;2104411;28;20048;-69
2023/10/25 01:27:16;;;;;;;64.63;31.70;;;;;;;-146.25;100.00;52532.44;2105242;28;20041;-68
2023/10/25 01:28:18;;;;;;;59.63;28.45;;;;;;;-146.25;100.00;52575.00;2104617;28;29256;-68
2023/10/25 01:29:20;;;;;;;61.63;30.63;;;;;;;-146.25;100.00;52544.59;2104234;28;20142;-68
2023/10/25 01:30:22;;;;;;;61.00;29.63;;;;;;;-146.25;100.00;52556.75;2103913;28;25173;-68
2023/10/25 01:31:23;;;;;;;62.67;30.67;;;;;;;-146.25;100.00;52554.75;2112376;28;34976;-69
2023/10/25 01:32:25;;;;;;;59.60;29.10;;;;;;;-146.25;100.00;52542.56;2111922;28;31599;-68
2023/10/25 01:33:27;;;;;;;60.17;31.48;;;;;;;-146.25;100.00;52550.69;2104459;28;20906;-69
2023/10/25 01:34:29;;;;;;;64.47;30.08;;;;;;;-146.25;100.00;52548.66;2104579;28;30545;-69
2023/10/25 01:35:31;;;;;;;62.13;29.73;;;;;;;-146.25;100.00;52564.88;2105021;28;20036;-69
2023/10/25 01:36:32;;;;;;;59.78;29.92;;;;;;;-146.25;100.00;52583.13;2104665;28;28623;-69
2023/10/25 01:37:34;;;;;;;60.55;29.80;;;;;;;-146.25;100.00;52510.13;2105041;28;35285;-69
2023/10/25 01:38:36;;;;;;;57.53;29.85;;;;;;;-146.25;100.00;52566.91;2104552;28;20145;-69
2023/10/25 01:39:40;;;;;;;63.65;30.38;;;;;;;-146.25;100.00;52542.56;2105398;28;20147;-68
2023/10/25 01:40:42;;;;;;;58.53;29.02;;;;;;;-146.25;100.00;52542.56;2103591;28;20932;-69
2023/10/25 01:41:44;;;;;;;56.13;28.83;;;;;;;-146.25;100.00;52577.03;2104017;28;20033;-69
2023/10/25 01:42:51;;;;;;;61.47;30.10;;;;;;;-146.25;100.00;52536.50;2103336;28;33710;-69
2023/10/25 01:43:53;;;;;;;58.72;29.88;;;;;;;-146.25;100.00;52570.97;2104648;28;28506;-69
2023/10/25 01:44:55;;;;;;;59.65;28.42;;;;;;;-146.25;100.00;52528.38;2104432;28;26313;-68
2023/10/25 01:45:57;;;;;;;64.55;30.35;;;;;;;-146.25;100.00;52575.00;2104372;28;34135;-69
2023/10/25 01:46:59;;;;;;;57.85;28.38;;;;;;;-146.25;100.00;52575.00;2104587;28;27972;-69
2023/10/25 01:48:01;;;;;;;57.42;28.75;;;;;;;-146.25;100.00;52550.69;2104026;28;20045;-68
2023/10/25 01:49:05;;;;;;;54.38;29.10;;;;;;;-146.25;100.00;52530.41;2087132;28;37554;-69
2023/10/25 01:50:07;;;;;;;59.65;30.83;;;;;;;-146.25;100.00;52534.47;2095303;28;28420;-68
2023/10/25 01:51:12;;;;;;;64.03;29.95;;;;;;;-146.25;100.00;52568.94;2095478;28;28213;-68
2023/10/25 01:52:15;;;;;;;55.88;29.75;;;;;;;-146.25;100.00;52526.34;2096437;28;29116;-69
2023/10/25 01:53:17;;;;;;;56.80;28.50;;;;;;;-146.25;100.00;52568.94;2111942;28;21218;-68
2023/10/25 01:54:19;;;;;;;59.72;28.42;;;;;;;-146.25;100.00;52562.84;2104933;28;20041;-69
2023/10/25 01:55:21;;;;;;;56.47;28.88;;;;;;;-146.25;100.00;52562.84;2103905;28;34189;-69
2023/10/25 01:56:23;;;;;;;60.40;29.10;;;;;;;-146.25;100.00;52560.81;2103937;28;27122;-69
2023/10/25 01:57:27;;;;;;;63.75;29.45;;;;;;;-146.25;100.00;52542.56;2095953;28;20037;-69
2023/10/25 01:58:31;;;;;;;60.63;29.27;;;;;;;-146.25;100.00;52597.31;2096028;28;20049;-68
2023/10/25 01:59:33;;;;;;;59.65;29.00;;;;;;;-146.25;100.00;52504.03;2105035;28;20260;-69
2023/10/25 02:00:37;;;;;;;56.63;28.20;;;;;;;-146.25;100.00;52544.59;2103339;28;20041;-69
2023/10/25 02:01:43;;;;;;;53.17;26.92;;;;;;;-146.25;100.00;52554.75;2104641;28;20965;-68
2023/10/25 02:02:45;;;;;;;53.75;27.45;;;;;;;-146.25;100.00;52520.28;2111706;28;20990;-69
2023/10/25 02:03:47;;;;;;;60.85;28.33;;;;;;;-146.25;100.00;52566.91;2104323;28;20863;-69
2023/10/25 02:04:49;;;;;;;57.58;27.20;;;;;;;-146.25;100.00;52548.66;2111985;28;33300;-69
2023/10/25 02:05:51;;;;;;;60.28;28.50;;;;;;;-146.25;100.00;52591.25;2104291;28;31514;-69
2023/10/25 02:06:53;;;;;;;61.47;29.33;;;;;;;-146.25;100.00;52564.88;2104628;28;32126;-69
2023/10/25 02:07:55;;;;;;;54.72;27.30;;;;;;;-146.25;100.00;52550.69;2105144;28;20043;-69
2023/10/25 02:08:56;;;;;;;51.70;26.23;;;;;;;-146.25;100.00;52554.75;2103849;28;31965;-69
2023/10/25 02:09:58;;;;;;;60.03;28.40;;;;;;;-146.25;100.00;52579.06;2103578;28;33229;-68
2023/10/25 02:11:02;;;;;;;63.25;28.45;;;;;;;-146.25;100.00;52573.00;2104113;28;20043;-69
2023/10/25 02:12:04;;;;;;;54.13;27.38;;;;;;;-146.25;100.00;52556.75;2104270;28;31404;-68
2023/10/25 02:13:07;;;;;;;55.20;27.70;;;;;;;-146.25;100.00;52581.09;2103633;28;20080;-68
2023/10/25 02:14:09;;;;;;;58.53;28.35;;;;;;;-146.25;100.00;52566.91;2104297;28;20141;-69
2023/10/25 02:15:11;;;;;;;61.88;28.95;;;;;;;-146.25;100.00;52562.84;2112486;28;30937;-69
2023/10/25 02:16:17;;;;;;;62.55;29.15;;;;;;;-146.25;100.00;52530.41;2112267;28;27959;-69
2023/10/25 02:17:19;;;;;;;58.25;27.67;;;;;;;-146.25;100.00;52577.03;2112174;28;20040;-68
2023/10/25 02:18:21;;;;;;;66.68;28.23;;;;;;;-146.25;100.00;52566.91;2112071;28;22845;-68
2023/10/25 02:19:23;;;;;;;56.05;27.50;;;;;;;-146.25;100.00;52560.81;2112805;28;20048;-69
2023/10/25 02:20:27;;;;;;;58.70;27.85;;;;;;;-146.25;100.00;52595.28;2104653;28;20052;-69
2023/10/25 02:21:34;;;;;;;65.10;28.45;;;;;;;-146.25;100.00;52516.22;2104535;28;20099;-69
2023/10/25 02:22:36;;;;;;;60.50;27.95;;;;;;;-146.25;100.00;52504.03;2104555;28;21230;-69
2023/10/25 02:23:39;;;;;;;54.50;27.08;;;;;;;-146.25;100.00;52518.25;2112583;28;20040;-68
2023/10/25 02:24:43;;;;;;;58.25;27.80;;;;;;;-146.25;100.00;52562.84;2103688;28;23371;-69
2023/10/25 02:25:47;;;;;;;61.22;28.02;;;;;;;-146.25;100.00;52534.47;2104370;28;20317;-69
2023/10/25 02:26:50;;;;;;;62.20;28.63;;;;;;;-146.25;100.00;52540.53;2111732;28;32595;-69
2023/10/25 02:27:52;;;;;;;58.72;28.05;;;;;;;-146.25;100.00;52568.94;2111776;28;26632;-69
2023/10/25 02:28:55;;;;;;;57.53;27.98;;;;;;;-146.25;100.00;52591.25;2103751;28;27070;-69
2023/10/25 02:29:57;;;;;;;61.58;27.40;;;;;;;-146.25;100.00;52558.78;2103190;28;34164;-69
2023/10/25 02:31:00;;;;;;;56.45;27.92;;;;;;;-146.25;100.00;52566.91;2104146;28;32830;-69
2023/10/25 02:32:07;;;;;;;64.18;28.08;;;;;;;-146.25;100.00;52599.34;2104998;28;20032;-69
2023/10/25 02:33:09;;;;;;;63.15;29.75;;;;;;;-146.25;100.00;52577.03;2103919;28;35606;-68
2023/10/25 02:34:11;;;;;;;62.53;28.98;;;;;;;-146.25;100.00;52542.56;2102489;28;35573;-69
2023/10/25 02:35:13;;;;;;;56.35;27.33;;;;;;;-146.25;100.00;52562.84;2103431;28;20257;-68
2023/10/25 02:36:14;;;;;;;57.97;27.70;;;;;;;-146.25;100.00;52575.00;2111990;28;31490;-69
2023/10/25 02:37:17;;;;;;;66.43;29.27;;;;;;;-146.25;100.00;52552.72;2103978;28;30569;-69
2023/10/25 02:38:19;;;;;;;68.10;29.25;;;;;;;-146.25;100.00;52542.56;2104303;28;20463;-69
2023/10/25 02:39:23;;;;;;;63.05;28.83;;;;;;;-146.25;100.00;52528.38;2103481;28;28484;-69
2023/10/25 02:40:25;;;;;;;62.90;28.83;;;;;;;-146.25;100.00;52554.75;2103851;28;25773;-69
2023/10/25 02:41:27;;;;;;;61.10;29.38;;;;;;;-146.25;100.00;52556.75;2103454;28;25216;-68
2023/10/25 02:42:29;;;;;;;61.63;27.35;;;;;;;-146.25;100.00;52558.78;2103430;28;31945;-69
2023/10/25 02:43:30;;;;;;;59.08;28.25;;;;;;;-146.25;100.00;52548.66;2104383;28;27060;-69
2023/10/25 02:44:32;;;;;;;60.83;27.15;;;;;;;-146.25;100.00;52556.75;2104458;28;32728;-68
2023/10/25 02:45:34;;;;;;;67.18;30.50;;;;;;;-146.25;100.00;52585.16;2103601;28;35758;-70
2023/10/25 02:46:36;;;;;;;64.90;29.02;;;;;;;-146.25;100.00;52554.75;2103957;28;20118;-69
2023/10/25 02:47:38;;;;;;;67.82;30.10;;;;;;;-146.25;100.00;52570.97;2103754;28;20103;-69
2023/10/25 02:48:40;;;;;;;63.15;28.00;;;;;;;-146.25;100.00;52528.38;2094722;28;33255;-69
2023/10/25 02:49:41;;;;;;;65.53;29.95;;;;;;;-146.25;100.00;52548.66;2102992;28;24160;-69
2023/10/25 02:50:44;;;;;;;59.30;28.15;;;;;;;-146.25;100.00;52520.28;2111433;28;30914;-69
2023/10/25 02:51:45;;;;;;;60.83;28.70;;;;;;;-146.25;100.00;52570.97;2104024;28;22753;-69
2023/10/25 02:52:48;;;;;;;64.13;28.60;;;;;;;-146.25;100.00;52570.97;2105377;28;20139;-69
2023/10/25 02:53:53;;;;;;;62.72;28.67;;;;;;;-146.25;100.00;52575.00;2104577;28;32059;-69
2023/10/25 02:54:55;;;;;;;66.50;29.60;;;;;;;-146.25;100.00;52575.00;2096917;28;21057;-69
2023/10/25 02:56:06;;;;;;;57.08;27.77;;;;;;;-146.25;100.00;52566.91;2104850;28;24676;-69
2023/10/25 02:57:07;;;;;;;68.28;29.88;;;;;;;-146.25;100.00;52556.75;2105588;28;31731;-69
2023/10/25 02:58:11;;;;;;;57.50;27.75;;;;;;;-146.25;100.00;52562.84;2105756;28;30527;-69
2023/10/25 02:59:13;;;;;;;54.95;26.45;;;;;;;-146.25;100.00;52546.63;2105598;28;28410;-68
2023/10/25 03:00:16;;;;;;;61.20;26.88;;;;;;;-146.25;100.00;52536.50;2105608;28;26901;-69
2023/10/25 03:01:24;;;;;;;53.38;25.85;;;;;;;-146.25;100.00;52552.72;2105281;28;36661;-69
2023/10/25 03:02:26;;;;;;;67.38;28.15;;;;;;;-146.25;100.00;52544.59;2096391;28;27318;-69
2023/10/25 03:03:31;;;;;;;62.65;28.45;;;;;;;-146.25;100.00;52528.38;2096757;28;27694;-69
2023/10/25 03:04:34;;;;;;;59.45;27.80;;;;;;;-146.25;100.00;52546.63;2097279;28;20736;-69
2023/10/25 03:05:35;;;;;;;61.08;27.70;;;;;;;-146.25;100.00;52512.16;2097081;28;31956;-69
2023/10/25 03:06:37;;;;;;;61.38;26.83;;;;;;;-146.25;100.00;52558.78;2105662;28;32905;-69
2023/10/25 03:07:39;;;;;;;64.18;28.55;;;;;;;-146.25;100.00;52566.91;2105861;28;21080;-69
2023/10/25 03:08:41;;;;;;;56.17;27.02;;;;;;;-146.25;100.00;52591.25;2104980;28;30174;-69
2023/10/25 03:09:42;;;;;;;59.22;27.20;;;;;;;-146.25;100.00;52562.84;2104992;28;32805;-69
2023/10/25 03:10:45;;;;;;;64.20;27.48;;;;;;;-146.25;100.00;52528.38;2105669;28;23816;-69
2023/10/25 03:11:46;;;;;;;63.17;28.23;;;;;;;-146.25;100.00;52581.09;2105512;28;23973;-69
2023/10/25 03:12:49;;;;;;;65.68;28.25;;;;;;;-146.25;100.00;52554.75;2106078;28;21650;-69
2023/10/25 03:13:50;;;;;;;58.15;25.50;;;;;;;-146.25;100.00;52575.00;2105109;28;38118;-69
2023/10/25 03:14:54;;;;;;;63.10;27.05;;;;;;;-146.25;100.00;52564.88;2105370;28;26609;-69
2023/10/25 03:15:57;;;;;;;68.93;27.90;;;;;;;-146.25;100.00;52548.66;2105718;28;20863;-69
2023/10/25 03:17:01;;;;;;;59.97;26.95;;;;;;;-146.25;100.00;52542.56;2105655;28;20036;-68
2023/10/25 03:18:04;;;;;;;52.90;25.20;;;;;;;-146.25;100.00;52534.47;2106174;28;20118;-69
2023/10/25 03:19:05;;;;;;;66.47;27.80;;;;;;;-146.25;100.00;52568.94;2105889;28;20052;-69
2023/10/25 03:20:08;;;;;;;51.47;24.30;;;;;;;-146.25;100.00;52550.69;2105357;28;20043;-69
2023/10/25 03:21:10;;;;;;;56.72;25.00;;;;;;;-146.25;100.00;52536.50;2096508;28;23977;-68
2023/10/25 03:22:11;;;;;;;52.55;23.83;;;;;;;-146.25;100.00;52564.88;2096562;28;25071;-68
2023/10/25 03:23:14;;;;;;;49.60;25.05;;;;;;;-146.25;100.00;52583.13;2105973;28;20089;-69
2023/10/25 03:24:16;;;;;;;56.17;25.08;;;;;;;-146.25;100.00;52595.28;2105633;28;20942;-69
2023/10/25 03:25:17;;;;;;;57.70;25.80;;;;;;;-146.25;100.00;52560.81;2105000;28;32009;-69
2023/10/25 03:26:19;;;;;;;52.63;24.45;;;;;;;-146.25;100.00;52493.91;2105546;28;26948;-68
2023/10/25 03:27:21;;;;;;;57.28;25.48;;;;;;;-146.25;100.00;52546.63;2105757;28;20036;-68
2023/10/25 03:28:23;;;;;;;49.80;24.20;;;;;;;-146.25;100.00;52562.84;2105839;28;27854;-69
2023/10/25 03:29:25;;;;;;;60.15;26.00;;;;;;;-146.25;100.00;52552.72;2105960;28;20021;-68
2023/10/25 03:30:26;;;;;;;57.60;25.98;;;;;;;-146.25;100.00;52542.56;2105438;28;20150;-68
2023/10/25 03:31:28;;;;;;;46.08;23.85;;;;;;;-146.25;100.00;52544.59;2105664;28;31874;-69
2023/10/25 03:32:30;;;;;;;54.08;25.67;;;;;;;-146.25;100.00;52518.25;2105024;28;35163;-69
2023/10/25 03:33:32;;;;;;;53.22;24.35;;;;;;;-146.25;100.00;52573.00;2105221;28;28249;-68
2023/10/25 03:34:34;;;;;;;59.28;24.95;;;;;;;-146.25;100.00;52552.72;2104539;28;34032;-69
2023/10/25 03:35:37;;;;;;;58.10;25.25;;;;;;;-146.25;100.00;52550.69;2105821;28;20151;-67
2023/10/25 03:36:39;;;;;;;50.40;23.98;;;;;;;-146.25;100.00;52577.03;2105188;28;36329;-68
2023/10/25 03:37:41;;;;;;;53.38;24.40;;;;;;;-146.25;100.00;52564.88;2105212;28;31093;-68
2023/10/25 03:38:43;;;;;;;55.58;24.92;;;;;;;-146.25;100.00;52585.16;2105279;28;20942;-69
2023/10/25 03:39:44;;;;;;;53.45;25.38;;;;;;;-146.25;100.00;52554.75;2104503;28;35942;-68
2023/10/25 03:40:47;;;;;;;53.45;24.38;;;;;;;-146.25;100.00;52526.34;2104524;28;20159;-68
2023/10/25 03:41:49;;;;;;;53.30;24.02;;;;;;;-146.25;100.00;52514.19;2113531;28;20036;-68
2023/10/25 03:42:51;;;;;;;55.53;24.45;;;;;;;-146.25;100.00;52579.06;2104911;28;34515;-69
2023/10/25 03:43:52;;;;;;;52.15;24.40;;;;;;;-146.25;100.00;52532.44;2105281;28;28123;-69
2023/10/25 03:44:55;;;;;;;46.45;23.25;;;;;;;-146.25;100.00;52554.75;2105620;28;20040;-69
2023/10/25 03:46:03;;;;;;;58.67;24.75;;;;;;;-146.25;100.00;52577.03;2105625;28;20771;-68
2023/10/25 03:47:06;;;;;;;63.65;24.85;;;;;;;-146.25;100.00;52546.63;2104391;28;30706;-69
2023/10/25 03:48:09;;;;;;;46.47;23.40;;;;;;;-146.25;100.00;52546.63;2097043;28;20190;-68
2023/10/25 03:49:10;;;;;;;54.78;24.05;;;;;;;-146.25;100.00;52591.25;2104355;28;33205;-68
2023/10/25 03:50:15;;;;;;;51.70;23.10;;;;;;;-146.25;100.00;52536.50;2105055;28;29963;-68
2023/10/25 03:51:18;;;;;;;55.50;24.23;;;;;;;-146.25;100.00;52570.97;2105673;28;20037;-68
2023/10/25 03:52:20;;;;;;;50.88;24.45;;;;;;;-146.25;100.00;52542.56;2105332;28;30292;-69
2023/10/25 03:53:22;;;;;;;50.83;24.05;;;;;;;-146.25;100.00;52548.66;2104808;28;31102;-68
2023/10/25 03:54:24;;;;;;;56.28;24.13;;;;;;;-146.25;100.00;52550.69;2104805;28;34553;-68
2023/10/25 03:55:29;;;;;;;50.13;24.60;;;;;;;-146.25;100.00;52506.06;2105032;28;20854;-68
2023/10/25 03:56:31;;;;;;;53.10;23.70;;;;;;;-146.25;100.00;52540.53;2104344;28;28669;-68
2023/10/25 03:57:32;;;;;;;54.40;24.20;;;;;;;-146.25;100.00;52528.38;2104492;28;28312;-69
2023/10/25 03:58:34;;;;;;;55.95;24.70;;;;;;;-146.25;100.00;52532.44;2105591;28;28571;-69
2023/10/25 03:59:36;;;;;;;49.63;22.50;;;;;;;-146.25;100.00;52548.66;2104928;28;32383;-69
2023/10/25 04:00:38;;;;;;;53.88;24.17;;;;;;;-146.25;100.00;52554.75;2104998;28;20044;-69
2023/10/25 04:01:39;;;;;;;49.63;23.77;;;;;;;-146.25;100.00;52562.84;2104252;28;37036;-69
2023/10/25 04:02:41;;;;;;;56.47;25.02;;;;;;;-146.25;100.00;52579.06;2104960;28;37280;-68
2023/10/25 04:03:43;;;;;;;56.63;24.13;;;;;;;-146.25;100.00;52558.78;2104809;28;29409;-69
2023/10/25 04:04:45;;;;;;;56.63;25.05;;;;;;;-146.25;100.00;52591.25;2104269;28;38084;-69
2023/10/25 04:05:46;;;;;;;50.13;23.38;;;;;;;-146.25;100.00;52540.53;2104781;28;35205;-68
2023/10/25 04:06:48;;;;;;;50.80;23.85;;;;;;;-146.25;100.00;52518.25;2105143;28;33911;-69
2023/10/25 04:07:51;;;;;;;47.72;22.90;;;;;;;-146.25;100.00;52550.69;2104794;28;34533;-69
2023/10/25 04:08:53;;;;;;;51.63;24.58;;;;;;;-146.25;100.00;52566.91;2105358;28;20151;-69
2023/10/25 04:09:55;;;;;;;50.33;24.02;;;;;;;-146.25;100.00;52514.19;2104764;28;38364;-68
2023/10/25 04:10:58;;;;;;;53.78;24.23;;;;;;;-146.25;100.00;52566.91;2104979;28;32191;-69
2023/10/25 04:12:02;;;;;;;55.28;25.52;;;;;;;-146.25;100.00;52566.91;2104650;28;36786;-69
2023/10/25 04:13:04;;;;;;;46.20;22.95;;;;;;;-146.25;100.00;52593.25;2105248;28;36723;-69
2023/10/25 04:14:06;;;;;;;46.15;24.15;;;;;;;-146.25;100.00;52534.47;2105342;28;20826;-69
2023/10/25 04:15:08;;;;;;;46.67;22.88;;;;;;;-146.25;100.00;52587.19;2104931;28;37874;-69
2023/10/25 04:16:10;;;;;;;52.45;24.20;;;;;;;-146.25;100.00;52577.03;2104889;28;34152;-68
2023/10/25 04:17:14;;;;;;;52.13;24.20;;;;;;;-146.25;100.00;52556.75;2104761;28;35417;-68
2023/10/25 04:18:16;;;;;;;47.25;23.25;;;;;;;-146.25;100.00;52566.91;2104568;28;37341;-69
2023/10/25 04:19:18;;;;;;;58.22;26.15;;;;;;;-146.25;100.00;52550.69;2104796;28;33711;-67
2023/10/25 04:20:20;;;;;;;51.65;24.35;;;;;;;-146.25;100.00;52536.50;2104615;28;35884;-68
2023/10/25 04:21:22;;;;;;;50.33;24.55;;;;;;;-146.25;100.00;52583.13;2104719;28;36785;-68
2023/10/25 04:22:23;;;;;;;57.40;26.08;;;;;;;-146.25;100.00;52552.72;2105028;28;30792;-68
2023/10/25 04:23:27;;;;;;;52.50;25.38;;;;;;;-146.25;100.00;52540.53;2104941;28;36398;-68
2023/10/25 04:24:30;;;;;;;52.80;26.00;;;;;;;-146.25;100.00;52570.97;2105000;28;20039;-69
2023/10/25 04:25:31;;;;;;;62.10;26.95;;;;;;;-146.25;100.00;52577.03;2104659;28;35219;-68
2023/10/25 04:26:33;;;;;;;59.42;26.08;;;;;;;-146.25;100.00;52550.69;2104171;28;37093;-68
2023/10/25 04:27:35;;;;;;;58.70;27.48;;;;;;;-146.25;100.00;52530.41;2104983;28;36732;-68
2023/10/25 04:28:43;;;;;;;59.13;26.77;;;;;;;-146.25;100.00;52562.84;2104464;28;35621;-69
2023/10/25 04:29:44;;;;;;;62.17;27.42;;;;;;;-146.25;100.00;52546.63;2105160;28;35863;-68
2023/10/25 04:30:46;;;;;;;63.80;27.88;;;;;;;-146.25;100.00;52532.44;2104347;28;34337;-68
2023/10/25 04:31:48;;;;;;;64.50;26.77;;;;;;;-146.25;100.00;52550.69;2104961;28;34972;-68
2023/10/25 04:32:50;;;;;;;58.13;27.52;;;;;;;-146.25;100.00;52583.13;2104382;28;38970;-69
2023/10/25 04:33:54;;;;;;;58.72;28.52;;;;;;;-146.25;100.00;52587.19;2104592;28;37213;-69
2023/10/25 04:34:56;;;;;;;60.75;28.25;;;;;;;-146.25;100.00;52552.72;2104889;28;34022;-68
2023/10/25 04:35:58;;;;;;;67.80;29.60;;;;;;;-146.25;100.00;52562.84;2104710;28;35116;-70
2023/10/25 04:36:59;;;;;;;71.10;31.00;;;;;;;-146.25;100.00;52524.31;2104598;28;37654;-68
2023/10/25 04:38:02;;;;;;;64.88;30.27;;;;;;;-146.25;100.00;52554.75;2104549;28;37905;-68